Time;durP1;ratioP1;P1;durP2;ratioP2;P2;SDS_P1;SDS_P2;PMS_P1;PMS_P2;Temp;Humidity;BMP_temperature;BMP_pressure;BME280_temperature;BME280_humidity;BME280_pressure;Samples;Min_cycle;Max_cycle;Signal;HPM_P1;HPM_P2
2022/01/12 00:02:19;;;;;;;;;;;-0.90;99.90;;;;;;5078167;28;20427;-68
2022/01/12 00:04:46;;;;;;;29.10;15.93;;;-1.00;99.90;;;;;;5077943;28;20849;-68
2022/01/12 00:07:13;;;;;;;28.55;16.08;;;-1.00;99.90;;;;;;5077848;28;20284;-69
2022/01/12 00:09:40;;;;;;;29.73;17.95;;;-0.90;99.90;;;;;;5078335;28;20576;-68
2022/01/12 00:12:08;;;;;;;27.98;15.50;;;-1.00;99.90;;;;;;5078175;28;20048;-68
2022/01/12 00:14:35;;;;;;;26.75;14.68;;;-1.00;99.90;;;;;;5077952;28;20604;-68
2022/01/12 00:17:02;;;;;;;24.10;14.43;;;-1.00;99.90;;;;;;5078166;28;20149;-68
2022/01/12 00:19:29;;;;;;;25.52;15.70;;;-1.00;99.90;;;;;;5075133;28;20517;-68
2022/01/12 00:21:57;;;;;;;28.60;16.90;;;-0.90;99.90;;;;;;5077626;28;20067;-68
2022/01/12 00:24:27;;;;;;;21.95;13.20;;;-1.00;99.90;;;;;;5078189;28;20055;-68
2022/01/12 00:35:10;;;;;;;22.30;14.35;;;-1.00;99.90;;;;;;5077788;28;20421;-68
2022/01/12 00:37:37;;;;;;;;;;;-1.00;99.90;;;;;;5078338;28;20130;-68
2022/01/12 00:40:05;;;;;;;28.02;15.15;;;-1.00;99.90;;;;;;5076358;28;19924;-68
2022/01/12 00:42:31;;;;;;;24.17;14.18;;;-1.00;99.90;;;;;;5078158;28;20109;-69
2022/01/12 00:45:01;;;;;;;;;;;-1.00;99.90;;;;;;5075697;28;20077;-68
2022/01/12 00:47:28;;;;;;;22.20;13.23;;;-1.00;99.90;;;;;;5077970;28;19931;-68
2022/01/12 00:49:55;;;;;;;21.55;12.77;;;-1.00;99.90;;;;;;5076275;28;20498;-68
2022/01/12 00:52:22;;;;;;;;;;;-1.00;99.90;;;;;;5076454;28;20048;-68
2022/01/12 00:54:48;;;;;;;22.92;12.57;;;-1.00;99.90;;;;;;5076353;28;19974;-69
2022/01/12 00:57:15;;;;;;;;;;;-1.10;99.90;;;;;;5077744;28;20502;-68
2022/01/12 00:59:42;;;;;;;19.83;12.82;;;-1.10;99.90;;;;;;5076863;28;19929;-68
2022/01/12 01:02:10;;;;;;;18.58;12.32;;;-1.10;99.90;;;;;;5076598;28;20183;-68
2022/01/12 01:04:37;;;;;;;22.55;13.23;;;-1.10;99.90;;;;;;5077369;28;20051;-68
2022/01/12 01:07:04;;;;;;;20.17;12.82;;;-1.10;99.90;;;;;;5076138;28;20874;-68
2022/01/12 01:09:34;;;;;;;21.98;13.82;;;-1.10;99.90;;;;;;5075709;28;20043;-68
2022/01/12 01:12:01;;;;;;;23.55;13.57;;;-1.10;99.90;;;;;;5077320;28;20207;-68
2022/01/12 01:15:00;;;;;;;20.98;14.18;;;-1.10;99.90;;;;;;5074579;28;20040;-68
2022/01/12 01:25:51;;;;;;;24.48;15.15;;;-1.20;99.90;;;;;;5076617;28;20036;-68
2022/01/12 01:28:21;;;;;;;28.48;15.52;;;-1.20;99.90;;;;;;5075176;28;20793;-68
2022/01/12 01:30:48;;;;;;;22.88;13.43;;;-1.30;99.90;;;;;;5074509;28;20044;-68
2022/01/12 01:33:21;;;;;;;27.05;14.60;;;-1.40;99.90;;;;;;5074121;28;20044;-68
2022/01/12 01:35:54;;;;;;;24.77;14.25;;;-1.40;99.90;;;;;;5076871;28;20282;-68
2022/01/12 01:38:24;;;;;;;22.83;13.77;;;-1.40;99.90;;;;;;5074929;28;20109;-68
2022/01/12 01:40:51;;;;;;;23.52;14.57;;;-1.40;99.90;;;;;;5073593;28;20040;-68
2022/01/12 01:43:44;;;;;;;27.23;15.68;;;-1.40;99.90;;;;;;5077007;28;20052;-68
2022/01/12 01:54:42;;;;;;;24.83;14.40;;;-1.70;99.90;;;;;;5074314;28;20040;-68
2022/01/12 01:57:09;;;;;;;;;;;-1.80;99.90;;;;;;5075260;28;20070;-69
2022/01/12 01:59:41;;;;;;;23.90;14.80;;;-1.80;99.90;;;;;;5073921;28;19973;-68
2022/01/12 02:02:09;;;;;;;28.08;15.95;;;-1.80;99.90;;;;;;5074901;28;20043;-69
2022/01/12 02:04:36;;;;;;;28.10;16.80;;;-1.90;99.90;;;;;;5073793;28;20150;-68
2022/01/12 02:07:02;;;;;;;;;;;-1.90;99.90;;;;;;5075860;28;20055;-68
2022/01/12 02:09:29;;;;;;;23.50;14.95;;;-1.90;99.90;;;;;;5072788;28;20467;-69
2022/01/12 02:12:12;;;;;;;34.42;18.95;;;-1.90;99.90;;;;;;5074668;28;20246;-68
2022/01/12 02:14:40;;;;;;;30.13;17.58;;;-2.00;99.90;;;;;;5074836;28;20044;-69
2022/01/12 02:17:15;;;;;;;;;;;-2.00;99.90;;;;;;5074071;28;20067;-69
2022/01/12 02:20:09;;;;;;;32.70;18.30;;;-2.00;99.90;;;;;;5074109;28;19924;-69
2022/01/12 02:36:32;;;;;;;34.35;18.75;;;-2.10;99.90;;;;;;5075907;28;20149;-69
2022/01/12 02:41:45;;;;;;;34.30;18.80;;;-2.20;99.90;;;;;;5075030;28;20050;-69
2022/01/12 02:54:51;;;;;;;37.45;21.15;;;-2.20;99.90;;;;;;5053162;28;20297;-69
2022/01/12 02:57:21;;;;;;;33.90;19.75;;;-2.20;99.90;;;;;;5054273;28;20125;-69
2022/01/12 03:00:02;;;;;;;31.50;18.80;;;-2.10;99.90;;;;;;5052497;28;20430;-69
2022/01/12 03:08:11;;;;;;;30.23;18.23;;;-2.10;99.90;;;;;;4992606;28;20104;-69
2022/01/12 03:10:39;;;;;;;31.35;17.33;;;-2.10;99.90;;;;;;4991766;28;20211;-68
2022/01/12 03:13:06;;;;;;;31.92;18.17;;;-2.00;99.90;;;;;;5026138;28;20133;-69
2022/01/12 03:15:39;;;;;;;27.73;17.55;;;-2.00;99.90;;;;;;5054713;28;20055;-69
2022/01/12 03:18:07;;;;;;;31.95;16.88;;;-2.00;99.90;;;;;;5065486;28;20044;-68
2022/01/12 03:20:34;;;;;;;28.92;16.73;;;-2.00;99.90;;;;;;5081847;28;20040;-68
2022/01/12 03:23:01;;;;;;;27.38;16.92;;;-2.00;99.90;;;;;;5092274;28;20048;-69
2022/01/12 03:25:28;;;;;;;26.40;15.88;;;-2.00;99.90;;;;;;5094155;28;20140;-69
2022/01/12 03:27:59;;;;;;;;;;;-2.00;99.90;;;;;;5094630;28;20050;-69
2022/01/12 03:30:26;;;;;;;28.90;16.08;;;-1.90;99.90;;;;;;5088918;28;19928;-68
2022/01/12 03:33:08;;;;;;;32.67;17.77;;;-1.90;99.90;;;;;;5065352;28;20131;-69
2022/01/12 03:35:50;;;;;;;32.45;19.08;;;-1.90;99.90;;;;;;5072806;28;20060;-69
2022/01/12 03:38:20;;;;;;;30.40;17.52;;;-1.90;99.90;;;;;;5075466;28;20051;-69
2022/01/12 03:40:50;;;;;;;26.08;15.77;;;-1.90;99.90;;;;;;5071869;28;20585;-69
2022/01/12 03:43:17;;;;;;;31.10;17.38;;;-1.90;99.90;;;;;;5072609;28;20071;-69
2022/01/12 03:45:47;;;;;;;30.42;19.17;;;-1.90;99.90;;;;;;5073241;28;20039;-69
2022/01/12 03:48:14;;;;;;;35.88;18.90;;;-1.90;99.90;;;;;;5073153;28;20310;-69
2022/01/12 03:50:41;;;;;;;34.83;18.70;;;-1.90;99.90;;;;;;5072809;28;20048;-69
2022/01/12 03:53:08;;;;;;;37.72;21.17;;;-1.90;99.90;;;;;;5074097;28;20376;-69
2022/01/12 03:55:35;;;;;;;33.42;19.27;;;-1.80;99.90;;;;;;5074779;28;20245;-69
2022/01/12 03:58:01;;;;;;;25.80;16.42;;;-1.80;99.90;;;;;;5073257;28;20048;-69
2022/01/12 04:00:28;;;;;;;29.13;17.48;;;-1.80;99.90;;;;;;5070748;28;20059;-69
2022/01/12 04:02:55;;;;;;;31.88;18.33;;;-1.80;99.90;;;;;;5072982;28;20117;-69
2022/01/12 04:08:21;;;;;;;29.77;17.95;;;-1.80;99.90;;;;;;5072716;28;20055;-69
2022/01/12 04:10:53;;;;;;;34.08;19.08;;;-1.80;99.90;;;;;;5073481;28;20066;-69
2022/01/12 04:13:22;;;;;;;32.72;18.95;;;-1.80;99.90;;;;;;5075866;28;20040;-69
2022/01/12 04:15:52;;;;;;;39.47;21.30;;;-1.70;99.90;;;;;;5076914;28;20571;-69
2022/01/12 04:18:19;;;;;;;41.42;22.63;;;-1.70;99.90;;;;;;5076149;28;20275;-69
2022/01/12 04:20:48;;;;;;;34.90;21.02;;;-1.70;99.90;;;;;;5074927;28;20553;-69
2022/01/12 04:23:17;;;;;;;34.20;18.38;;;-1.70;99.90;;;;;;5076306;28;20430;-70
2022/01/12 04:25:49;;;;;;;28.63;17.58;;;-1.70;99.90;;;;;;5075996;28;20043;-69
2022/01/12 04:28:17;;;;;;;27.98;17.38;;;-1.80;99.90;;;;;;5078702;28;20343;-69
2022/01/12 04:30:45;;;;;;;30.98;17.85;;;-1.80;99.90;;;;;;5076516;28;20113;-69
2022/01/12 04:33:12;;;;;;;28.15;17.05;;;-1.80;99.90;;;;;;5077502;28;20438;-69
2022/01/12 04:35:51;;;;;;;27.40;16.00;;;-1.90;99.90;;;;;;5076535;28;20265;-69
2022/01/12 04:38:20;;;;;;;26.73;15.50;;;-1.90;99.90;;;;;;5076903;28;20457;-70
2022/01/12 04:40:48;;;;;;;29.58;17.00;;;-2.00;99.90;;;;;;5078448;28;20616;-69
2022/01/12 04:43:17;;;;;;;26.35;15.52;;;-2.00;99.90;;;;;;5075774;28;20418;-69
2022/01/12 04:46:08;;;;;;;28.27;16.55;;;-2.00;99.90;;;;;;5075868;28;20040;-69
2022/01/12 04:48:48;;;;;;;35.20;17.98;;;-2.00;99.90;;;;;;5076146;28;20536;-69
2022/01/12 04:51:15;;;;;;;31.70;16.98;;;-2.00;99.90;;;;;;5076405;28;20406;-69
2022/01/12 04:53:42;;;;;;;36.47;19.40;;;-2.00;99.90;;;;;;5075890;28;20121;-69
2022/01/12 04:56:09;;;;;;;38.33;20.60;;;-2.10;99.90;;;;;;5075940;28;20060;-69
2022/01/12 04:58:37;;;;;;;37.10;20.98;;;-2.10;99.90;;;;;;5059046;28;20074;-69
2022/01/12 05:01:09;;;;;;;41.67;23.00;;;-2.10;99.90;;;;;;5075704;28;20225;-69
2022/01/12 05:06:47;;;;;;;41.88;21.85;;;-2.20;99.90;;;;;;5075620;28;20048;-69
2022/01/12 05:14:59;;;;;;;37.28;18.50;;;-2.30;99.90;;;;;;5076919;28;20155;-69
2022/01/12 05:17:26;;;;;;;33.58;17.95;;;-2.30;99.90;;;;;;5076035;28;20058;-68
2022/01/12 05:19:53;;;;;;;31.88;17.85;;;-2.40;99.90;;;;;;5074231;28;20118;-68
2022/01/12 05:22:20;;;;;;;;;;;-2.40;99.90;;;;;;5073846;28;20051;-68
2022/01/12 05:24:46;;;;;;;30.85;16.80;;;-2.40;99.90;;;;;;5077108;28;19923;-68
2022/01/12 05:27:26;;;;;;;34.80;19.20;;;-2.40;99.90;;;;;;5076048;28;20186;-68
2022/01/12 05:29:53;;;;;;;37.10;18.42;;;-2.40;99.90;;;;;;5075162;28;20051;-69
2022/01/12 05:32:22;;;;;;;;;;;-2.50;99.90;;;;;;5077137;28;20579;-68
2022/01/12 05:34:49;;;;;;;37.85;19.02;;;-2.40;99.90;;;;;;5075222;28;19993;-68
2022/01/12 05:37:17;;;;;;;35.25;19.52;;;-2.50;99.90;;;;;;5075408;28;20125;-68
2022/01/12 05:39:43;;;;;;;35.28;19.35;;;-2.50;99.90;;;;;;5074103;28;20066;-69
2022/01/12 05:42:25;;;;;;;34.55;19.02;;;-2.50;99.90;;;;;;5075951;28;20133;-68
2022/01/12 05:44:53;;;;;;;31.75;17.02;;;-2.50;99.90;;;;;;5074863;28;20040;-68
2022/01/12 05:49:33;;;;;;;37.70;19.25;;;-2.50;99.90;;;;;;5076473;28;20138;-68
2022/01/12 05:50:24;;;;;;;30.27;18.75;;;-2.50;99.90;;;;;;5073879;28;20051;-68
2022/01/12 05:52:52;;;;;;;38.55;19.48;;;-2.50;99.90;;;;;;5076821;28;20040;-68
2022/01/12 05:55:19;;;;;;;40.15;20.60;;;-2.50;99.90;;;;;;5074965;28;20131;-68
2022/01/12 05:57:48;;;;;;;35.85;19.33;;;-2.50;99.90;;;;;;5074401;28;20221;-68
2022/01/12 06:00:17;;;;;;;39.60;21.67;;;-2.60;99.90;;;;;;5074355;28;20040;-68
2022/01/12 06:02:51;;;;;;;38.17;21.10;;;-2.60;99.90;;;;;;5074432;28;20031;-68
2022/01/12 06:05:20;;;;;;;39.15;20.98;;;-2.50;99.90;;;;;;5074486;28;20589;-68
2022/01/12 06:07:49;;;;;;;37.33;18.55;;;-2.50;99.90;;;;;;5075074;28;20050;-68
2022/01/12 06:10:17;;;;;;;42.50;20.13;;;-2.50;99.90;;;;;;5073222;28;20039;-67
2022/01/12 06:12:45;;;;;;;33.58;18.63;;;-2.60;99.90;;;;;;5073676;28;20044;-68
2022/01/12 06:15:17;;;;;;;35.42;19.95;;;-2.60;99.90;;;;;;5073202;28;20467;-67
2022/01/12 06:17:44;;;;;;;37.28;18.40;;;-2.60;99.90;;;;;;5075905;28;20055;-68
2022/01/12 06:20:11;;;;;;;31.70;18.55;;;-2.70;99.90;;;;;;5073590;28;20143;-68
2022/01/12 06:23:04;;;;;;;33.38;18.17;;;-2.70;99.90;;;;;;5057756;28;20104;-67
2022/01/12 06:25:33;;;;;;;33.65;18.38;;;-2.70;99.90;;;;;;5073830;28;20051;-68
2022/01/12 06:28:21;;;;;;;39.05;19.10;;;-2.70;99.90;;;;;;5073859;28;20044;-67
2022/01/12 06:33:32;;;;;;;33.92;18.08;;;-2.80;99.90;;;;;;5074038;28;20048;-68
2022/01/12 06:35:59;;;;;;;32.13;17.48;;;-2.80;99.90;;;;;;5074136;28;20229;-68
2022/01/12 06:38:26;;;;;;;32.75;17.80;;;-2.80;99.90;;;;;;5076105;28;20731;-68
2022/01/12 06:40:53;;;;;;;30.13;17.45;;;-2.80;99.90;;;;;;5074312;28;20044;-68
2022/01/12 06:43:20;;;;;;;33.55;17.67;;;-2.70;99.90;;;;;;5073994;28;20055;-68
2022/01/12 06:45:47;;;;;;;33.65;17.70;;;-2.70;99.90;;;;;;5073454;28;20121;-68
2022/01/12 06:48:14;;;;;;;38.80;18.35;;;-2.80;99.90;;;;;;5074969;28;20112;-68
2022/01/12 06:50:41;;;;;;;34.05;17.88;;;-2.80;99.90;;;;;;5072672;28;20048;-68
2022/01/12 06:53:08;;;;;;;32.80;18.77;;;-2.80;99.90;;;;;;5073333;28;20073;-56
2022/01/12 06:55:34;;;;;;;30.08;16.58;;;-2.80;99.90;;;;;;5074093;28;20051;-56
2022/01/12 06:58:01;;;;;;;32.95;18.05;;;-2.80;99.90;;;;;;5073328;28;20186;-56
2022/01/12 07:00:28;;;;;;;33.33;18.02;;;-2.80;99.90;;;;;;5074278;28;20040;-56
2022/01/12 07:02:55;;;;;;;29.10;17.38;;;-2.80;99.90;;;;;;5073989;28;20047;-56
2022/01/12 07:05:30;;;;;;;35.15;17.50;;;-2.80;99.90;;;;;;5072274;28;20375;-56
2022/01/12 07:07:57;;;;;;;31.88;16.08;;;-2.90;99.90;;;;;;5073577;28;20036;-56
2022/01/12 07:10:32;;;;;;;29.38;16.95;;;-2.90;99.90;;;;;;5069121;28;20051;-56
2022/01/12 07:13:10;;;;;;;30.15;15.88;;;-2.90;99.90;;;;;;5068148;28;20420;-56
2022/01/12 07:15:38;;;;;;;30.90;16.40;;;-2.90;99.90;;;;;;5073690;28;20046;-56
2022/01/12 07:18:05;;;;;;;28.23;16.65;;;-2.90;99.90;;;;;;5071747;28;20327;-56
2022/01/12 07:20:32;;;;;;;34.08;18.13;;;-2.90;99.90;;;;;;5071200;28;20103;-57
2022/01/12 07:22:59;;;;;;;34.03;18.00;;;-2.90;99.90;;;;;;5073917;28;20557;-57
2022/01/12 07:25:26;;;;;;;27.65;15.40;;;-2.90;99.90;;;;;;5071701;28;20048;-57
2022/01/12 07:27:53;;;;;;;31.52;16.25;;;-2.90;99.90;;;;;;5072749;28;20048;-57
2022/01/12 07:30:24;;;;;;;41.47;18.60;;;-2.90;99.90;;;;;;5066440;28;20502;-57
2022/01/12 07:32:51;;;;;;;31.33;16.15;;;-2.90;99.90;;;;;;5073477;28;20059;-57
2022/01/12 07:35:19;;;;;;;29.48;16.85;;;-2.80;99.90;;;;;;5073111;28;20506;-57
2022/01/12 07:37:46;;;;;;;28.92;16.13;;;-2.70;99.90;;;;;;5073986;28;20407;-57
2022/01/12 07:40:13;;;;;;;29.92;17.45;;;-2.60;99.90;;;;;;5073837;28;20214;-57
2022/01/12 07:42:40;;;;;;;28.65;16.05;;;-2.60;99.90;;;;;;5073178;28;20061;-57
2022/01/12 07:45:12;;;;;;;30.20;16.35;;;-2.50;99.90;;;;;;5072926;28;20470;-57
2022/01/12 07:47:39;;;;;;;29.00;15.82;;;-2.50;99.90;;;;;;5078385;28;20052;-57
2022/01/12 07:50:08;;;;;;;28.58;15.10;;;-2.50;99.90;;;;;;5076603;28;20550;-57
2022/01/12 07:52:35;;;;;;;28.77;16.42;;;-2.50;99.90;;;;;;5078198;28;20519;-57
2022/01/12 07:55:03;;;;;;;32.53;17.75;;;-2.50;99.90;;;;;;5077316;28;20627;-57
2022/01/12 07:57:30;;;;;;;28.40;16.20;;;-2.50;99.90;;;;;;5077532;28;20484;-57
2022/01/12 07:59:57;;;;;;;32.50;16.20;;;-2.50;99.90;;;;;;5076807;28;20670;-57
2022/01/12 08:02:24;;;;;;;32.22;16.38;;;-2.60;99.90;;;;;;5077136;28;20515;-57
2022/01/12 08:04:51;;;;;;;28.45;15.88;;;-2.70;99.90;;;;;;5077481;28;20097;-57
2022/01/12 08:07:18;;;;;;;28.17;16.42;;;-2.70;99.90;;;;;;5076855;28;20604;-57
2022/01/12 08:09:45;;;;;;;30.92;16.52;;;-2.80;99.90;;;;;;5076454;28;20036;-58
2022/01/12 08:12:12;;;;;;;31.33;16.38;;;-2.80;99.90;;;;;;5077645;28;20059;-56
2022/01/12 08:14:39;;;;;;;31.67;16.25;;;-2.80;99.90;;;;;;5073487;28;20048;-55
2022/01/12 08:17:06;;;;;;;31.10;16.02;;;-2.90;99.90;;;;;;5077986;28;20044;-55
2022/01/12 08:19:37;;;;;;;30.25;16.70;;;-2.90;99.90;;;;;;5075472;28;20658;-58
2022/01/12 08:22:04;;;;;;;29.55;17.20;;;-2.90;99.90;;;;;;5075817;28;20619;-61
2022/01/12 08:24:31;;;;;;;31.77;17.83;;;-2.90;99.90;;;;;;5076572;28;20063;-56
2022/01/12 08:27:07;;;;;;;29.00;15.93;;;-2.90;99.90;;;;;;5074798;28;20044;-56
2022/01/12 08:29:34;;;;;;;31.40;16.88;;;-2.80;99.90;;;;;;5076234;28;20048;-58
2022/01/12 08:32:01;;;;;;;33.85;17.95;;;-2.80;99.90;;;;;;5077014;28;20101;-56
2022/01/12 08:34:28;;;;;;;33.42;17.17;;;-2.80;99.90;;;;;;5074566;28;20555;-58
2022/01/12 08:36:55;;;;;;;26.17;15.70;;;-2.80;99.90;;;;;;5076961;28;20228;-58
2022/01/12 08:39:22;;;;;;;27.60;15.40;;;-2.80;99.90;;;;;;5075906;28;20052;-58
2022/01/12 08:41:49;;;;;;;29.65;15.48;;;-2.70;99.90;;;;;;5076842;28;20106;-58
2022/01/12 08:44:31;;;;;;;31.88;17.02;;;-2.70;99.90;;;;;;5076823;28;20036;-57
2022/01/12 08:46:58;;;;;;;31.73;16.30;;;-2.70;99.90;;;;;;5076894;28;20161;-57
2022/01/12 08:49:25;;;;;;;31.00;16.05;;;-2.60;99.90;;;;;;5074876;28;20040;-55
2022/01/12 08:51:51;;;;;;;29.92;16.17;;;-2.60;99.90;;;;;;5075321;28;20048;-58
2022/01/12 08:54:18;;;;;;;30.98;16.77;;;-2.60;99.90;;;;;;5076831;28;20109;-55
2022/01/12 08:56:46;;;;;;;29.55;16.00;;;-2.50;99.90;;;;;;5076200;28;20064;-59
2022/01/12 08:59:13;;;;;;;30.42;17.02;;;-2.50;99.90;;;;;;5075314;28;20112;-55
2022/01/12 09:01:41;;;;;;;31.77;17.52;;;-2.40;99.90;;;;;;5077240;28;20044;-55
2022/01/12 09:04:08;;;;;;;33.25;16.67;;;-2.40;99.90;;;;;;5075946;28;20071;-54
2022/01/12 09:06:35;;;;;;;28.98;16.70;;;-2.30;99.90;;;;;;5075142;28;20040;-55
2022/01/12 09:09:04;;;;;;;29.63;17.08;;;-2.30;99.90;;;;;;5075205;28;20052;-55
2022/01/12 09:11:31;;;;;;;33.17;17.00;;;-2.30;99.90;;;;;;5075503;28;20509;-56
2022/01/12 09:13:59;;;;;;;30.10;16.70;;;-2.20;99.90;;;;;;5076375;28;20055;-56
2022/01/12 09:16:25;;;;;;;29.95;15.95;;;-2.20;99.90;;;;;;5074985;28;20120;-55
2022/01/12 09:18:52;;;;;;;29.92;16.20;;;-2.10;99.90;;;;;;5074640;28;20650;-55
2022/01/12 09:21:19;;;;;;;28.60;16.70;;;-2.00;99.90;;;;;;5075829;28;20571;-57
2022/01/12 09:23:48;;;;;;;28.88;16.08;;;-2.00;99.90;;;;;;5074969;28;20391;-57
2022/01/12 09:26:15;;;;;;;32.05;17.08;;;-2.00;99.90;;;;;;5074465;28;20219;-57
2022/01/12 09:28:42;;;;;;;31.17;16.35;;;-2.00;99.90;;;;;;5074207;28;20765;-57
2022/01/12 09:31:09;;;;;;;32.83;17.40;;;-1.90;99.90;;;;;;5075983;28;20428;-57
2022/01/12 09:33:36;;;;;;;33.50;17.30;;;-1.90;99.90;;;;;;5075864;28;20158;-57
2022/01/12 09:36:03;;;;;;;29.35;16.45;;;-1.90;99.90;;;;;;5074705;28;20101;-57
2022/01/12 09:38:30;;;;;;;30.05;17.15;;;-1.80;99.90;;;;;;5075855;28;20447;-57
2022/01/12 09:40:57;;;;;;;27.65;15.20;;;-1.80;99.90;;;;;;5074510;28;20051;-58
2022/01/12 09:43:33;;;;;;;27.85;15.70;;;-1.80;99.90;;;;;;5075217;28;20051;-58
2022/01/12 09:46:00;;;;;;;29.33;15.93;;;-1.80;99.90;;;;;;5075407;28;20039;-56
2022/01/12 09:48:33;;;;;;;34.05;15.40;;;-1.70;99.90;;;;;;5074094;28;20124;-55
2022/01/12 09:51:04;;;;;;;33.22;16.30;;;-1.60;99.90;;;;;;5074734;28;20336;-56
2022/01/12 09:53:33;;;;;;;27.80;16.25;;;-1.70;99.90;;;;;;5075311;28;20051;-56
2022/01/12 09:56:03;;;;;;;25.13;15.00;;;-1.60;99.90;;;;;;5074148;28;20550;-57
2022/01/12 09:58:33;;;;;;;28.95;15.85;;;-1.50;99.90;;;;;;5074559;28;20585;-66
2022/01/12 10:01:01;;;;;;;35.75;16.00;;;-1.40;99.90;;;;;;5073622;28;20510;-54
2022/01/12 10:03:31;;;;;;;26.55;15.73;;;-1.20;99.90;;;;;;5075052;28;20124;-57
2022/01/12 10:06:00;;;;;;;24.45;14.60;;;-1.00;99.90;;;;;;5074394;28;20549;-58
2022/01/12 10:08:34;;;;;;;26.60;16.92;;;-0.80;99.90;;;;;;5074961;28;20071;-57
2022/01/12 10:11:07;;;;;;;25.95;15.73;;;-0.60;99.90;;;;;;5074206;28;20048;-58
2022/01/12 10:13:40;;;;;;;30.00;16.52;;;-0.40;99.90;;;;;;5072884;28;20044;-58
2022/01/12 10:16:17;;;;;;;24.98;15.23;;;-0.30;99.90;;;;;;5073247;28;20063;-59
2022/01/12 10:18:57;;;;;;;27.00;16.10;;;-0.10;99.90;;;;;;5072347;28;20070;-54
2022/01/12 10:21:30;;;;;;;28.23;15.35;;;0.20;99.90;;;;;;5074065;28;20039;-54
2022/01/12 10:24:19;;;;;;;28.38;15.80;;;0.50;99.90;;;;;;5074728;28;20093;-54
2022/01/12 10:26:47;;;;;;;23.83;14.82;;;0.80;99.90;;;;;;5073045;28;20036;-56
2022/01/12 10:29:22;;;;;;;23.70;14.63;;;1.20;99.90;;;;;;5071761;28;20208;-55
2022/01/12 10:31:54;;;;;;;22.65;13.73;;;1.50;99.90;;;;;;5073307;28;20521;-55
2022/01/12 10:34:24;;;;;;;24.58;14.88;;;1.80;99.90;;;;;;5072632;28;20334;-55
2022/01/12 10:36:53;;;;;;;24.83;15.23;;;1.90;99.90;;;;;;5074592;28;20044;-57
2022/01/12 10:39:23;;;;;;;26.05;14.75;;;1.90;99.90;;;;;;5073232;28;20117;-57
2022/01/12 10:41:59;;;;;;;24.08;14.48;;;1.90;99.90;;;;;;5074149;28;20055;-57
2022/01/12 10:44:41;;;;;;;21.38;12.80;;;1.80;99.90;;;;;;5073448;28;20419;-57
2022/01/12 10:47:32;;;;;;;23.65;14.40;;;1.70;99.90;;;;;;5074402;28;20261;-57
2022/01/12 10:50:00;;;;;;;21.40;14.18;;;1.80;99.90;;;;;;5073090;28;20048;-60
2022/01/12 10:52:30;;;;;;;23.60;14.48;;;1.90;99.90;;;;;;5072998;28;20052;-60
2022/01/12 10:55:07;;;;;;;25.02;15.98;;;2.10;99.90;;;;;;5074126;28;20052;-60
2022/01/12 10:57:37;;;;;;;23.80;14.30;;;2.40;99.90;;;;;;5073524;28;20435;-59
2022/01/12 11:00:19;;;;;;;20.17;12.98;;;2.70;99.90;;;;;;5074049;28;20446;-59
2022/01/12 11:02:56;;;;;;;23.90;13.85;;;2.90;99.90;;;;;;5073447;28;20256;-59
2022/01/12 11:05:28;;;;;;;19.63;12.80;;;3.20;99.90;;;;;;5074823;28;20040;-59
2022/01/12 11:07:55;;;;;;;23.52;13.77;;;3.50;99.90;;;;;;5074353;28;20040;-59
2022/01/12 11:10:23;;;;;;;20.85;12.75;;;3.80;99.90;;;;;;5072351;28;20059;-59
2022/01/12 11:12:51;;;;;;;19.92;12.70;;;4.00;99.00;;;;;;5074307;28;20134;-59
2022/01/12 11:15:21;;;;;;;20.10;12.90;;;4.20;97.70;;;;;;5073604;28;20192;-59
2022/01/12 11:17:49;;;;;;;20.52;13.68;;;4.50;97.00;;;;;;5073042;28;20037;-59
2022/01/12 11:20:27;;;;;;;22.35;12.80;;;4.70;95.50;;;;;;5074159;28;20241;-59
2022/01/12 11:23:07;;;;;;;20.55;12.75;;;4.80;94.10;;;;;;5077545;28;20040;-60
2022/01/12 11:25:43;;;;;;;24.25;14.13;;;4.90;94.60;;;;;;5077333;28;20366;-59
2022/01/12 11:28:25;;;;;;;22.42;13.13;;;5.00;94.00;;;;;;5077001;28;20476;-59
2022/01/12 11:30:52;;;;;;;20.40;12.63;;;5.30;94.20;;;;;;5075888;28;20467;-59
2022/01/12 11:33:20;;;;;;;;;;;5.40;93.00;;;;;;5076592;28;20138;-57
2022/01/12 11:35:48;;;;;;;;;;;5.30;92.80;;;;;;5075210;28;19977;-57
2022/01/12 11:38:25;;;;;;;21.50;13.95;;;5.20;92.40;;;;;;5075717;28;19924;-56
2022/01/12 11:41:08;;;;;;;21.23;14.25;;;5.00;92.30;;;;;;5074842;28;20112;-57
2022/01/12 11:43:46;;;;;;;22.08;14.60;;;4.70;93.20;;;;;;5077230;28;20070;-52
2022/01/12 11:46:18;;;;;;;21.08;14.32;;;4.40;93.80;;;;;;5077055;28;20036;-55
2022/01/12 11:48:49;;;;;;;27.90;16.02;;;4.10;94.30;;;;;;5076285;28;20044;-54
2022/01/12 11:51:19;;;;;;;23.05;14.50;;;3.70;94.80;;;;;;5077502;28;20530;-50
2022/01/12 11:53:55;;;;;;;23.38;14.82;;;3.40;95.80;;;;;;5076810;28;20381;-52
2022/01/12 11:56:25;;;;;;;19.30;12.98;;;3.00;96.50;;;;;;5076457;28;20520;-51
2022/01/12 11:59:12;;;;;;;23.77;13.75;;;2.70;97.30;;;;;;5076817;28;20499;-53
2022/01/12 12:01:48;;;;;;;20.63;13.40;;;2.50;97.90;;;;;;5077803;28;20040;-57
2022/01/12 12:04:23;;;;;;;22.98;14.45;;;2.20;98.80;;;;;;5077500;28;20063;-58
2022/01/12 12:07:08;;;;;;;22.98;14.23;;;2.00;99.30;;;;;;5076977;28;20079;-58
2022/01/12 12:09:53;;;;;;;22.10;14.73;;;1.80;99.90;;;;;;5076356;28;20048;-59
2022/01/12 12:12:30;;;;;;;25.02;15.23;;;1.60;99.90;;;;;;5076106;28;20047;-59
2022/01/12 12:14:59;;;;;;;24.80;15.00;;;1.60;99.90;;;;;;5077005;28;20036;-58
2022/01/12 12:17:29;;;;;;;25.30;15.60;;;1.70;99.90;;;;;;5076534;28;20048;-59
2022/01/12 12:19:57;;;;;;;24.45;15.48;;;2.00;99.90;;;;;;5075665;28;20052;-58
2022/01/12 12:22:37;;;;;;;26.33;14.82;;;2.20;99.90;;;;;;5076943;28;20242;-58
2022/01/12 12:25:15;;;;;;;19.70;12.73;;;2.20;99.90;;;;;;5075401;28;20130;-58
2022/01/12 12:27:50;;;;;;;21.55;14.68;;;2.20;99.90;;;;;;5077606;28;20090;-58
2022/01/12 12:30:18;;;;;;;20.15;13.43;;;2.10;99.90;;;;;;5074049;28;20071;-59
2022/01/12 12:32:48;;;;;;;26.23;14.27;;;2.00;99.90;;;;;;5076120;28;20109;-58
2022/01/12 12:35:24;;;;;;;22.27;13.27;;;1.90;99.90;;;;;;5076829;28;20052;-58
2022/01/12 12:37:55;;;;;;;17.45;12.10;;;1.80;99.90;;;;;;5076271;28;20051;-58
2022/01/12 12:40:26;;;;;;;17.90;11.93;;;1.70;99.90;;;;;;5076119;28;20044;-58
2022/01/12 12:43:04;;;;;;;17.05;11.50;;;1.60;99.90;;;;;;5078073;28;20666;-59
2022/01/12 12:45:41;;;;;;;18.98;12.25;;;1.40;99.90;;;;;;5077354;28;20040;-58
2022/01/12 12:48:10;;;;;;;17.35;11.13;;;1.40;99.90;;;;;;5077348;28;20040;-59
2022/01/12 12:50:37;;;;;;;23.10;13.70;;;1.30;99.90;;;;;;5073985;28;20043;-58
2022/01/12 12:53:08;;;;;;;19.17;11.27;;;1.10;99.90;;;;;;5076724;28;20113;-58
2022/01/12 12:55:38;;;;;;;19.17;12.60;;;1.10;99.90;;;;;;5076157;28;20044;-58
2022/01/12 12:58:05;;;;;;;19.80;11.88;;;1.00;99.90;;;;;;5076392;28;20267;-58
2022/01/12 13:00:34;;;;;;;21.15;12.02;;;1.00;99.90;;;;;;5075661;28;20430;-58
2022/01/12 13:03:02;;;;;;;18.88;11.90;;;1.00;99.90;;;;;;5075634;28;20334;-59
2022/01/12 13:05:32;;;;;;;18.23;11.88;;;1.00;99.90;;;;;;5077991;28;20159;-58
2022/01/12 13:07:59;;;;;;;18.27;11.05;;;1.00;99.90;;;;;;5077780;28;20059;-58
2022/01/12 13:10:31;;;;;;;27.02;12.30;;;0.90;99.90;;;;;;5075479;28;20331;-57
2022/01/12 13:13:01;;;;;;;19.73;12.43;;;0.80;99.90;;;;;;5075792;28;20121;-57
2022/01/12 13:15:38;;;;;;;23.55;11.88;;;0.70;99.90;;;;;;5074104;28;20343;-58
2022/01/12 13:18:09;;;;;;;17.70;11.02;;;0.60;99.90;;;;;;5074340;28;20048;-57
2022/01/12 13:23:31;;;;;;;16.10;10.65;;;0.50;99.90;;;;;;5073467;28;20032;-57
2022/01/12 13:26:04;;;;;;;19.30;11.20;;;0.50;99.90;;;;;;5071319;28;20060;-57
2022/01/12 13:28:32;;;;;;;17.50;11.65;;;0.40;99.90;;;;;;5074480;28;20141;-57
2022/01/12 13:31:05;;;;;;;20.00;10.80;;;0.40;99.90;;;;;;5072535;28;20512;-57
2022/01/12 13:33:38;;;;;;;17.27;11.32;;;0.30;99.90;;;;;;5072413;28;20482;-57
2022/01/12 13:36:15;;;;;;;18.70;11.63;;;0.30;99.90;;;;;;5067052;28;20141;-57
2022/01/12 13:38:47;;;;;;;15.45;11.27;;;0.30;99.90;;;;;;5072937;28;20036;-57
2022/01/12 13:41:16;;;;;;;20.02;10.80;;;0.30;99.90;;;;;;5071677;28;20044;-57
2022/01/12 13:43:51;;;;;;;16.58;10.45;;;0.40;99.90;;;;;;5073360;28;20039;-57
2022/01/12 13:46:19;;;;;;;15.02;9.82;;;0.50;99.90;;;;;;5073977;28;20047;-61
2022/01/12 13:51:37;;;;;;;15.52;9.65;;;0.60;99.90;;;;;;5075601;28;20338;-58
2022/01/12 13:54:10;;;;;;;18.65;10.95;;;0.60;99.90;;;;;;5075776;28;20149;-59
2022/01/12 13:56:39;;;;;;;13.65;9.57;;;0.70;99.90;;;;;;5074871;28;20048;-59
2022/01/12 13:59:06;;;;;;;16.60;10.55;;;0.90;99.90;;;;;;5074500;28;20621;-59
2022/01/12 14:01:35;;;;;;;17.92;10.45;;;1.10;99.90;;;;;;5074774;28;20125;-59
2022/01/12 14:04:11;;;;;;;15.23;10.32;;;1.40;99.90;;;;;;5076839;28;20052;-59
2022/01/12 14:06:41;;;;;;;17.55;11.40;;;1.70;99.90;;;;;;5076556;28;20059;-59
2022/01/12 14:09:26;;;;;;;20.83;11.27;;;1.90;99.90;;;;;;5075720;28;20047;-59